^^
Your Local Weather - Clay, NY Station Historical Data
Daily Summary for August 2, 2017 Units:  English    Metric   Both
« Previous Day
Next Day »
Daily Weekly Monthly Yearly Custom
  High: Low: Average:
Temperature: 85.3 °F 63.1 °F 74.1 °F
Dew Point: 68.7 °F 59.2 °F 63.6 °F
Humidity: 94% 45% 72%
Wind Speed: 5.0mph 0.0mph 0.6mph
Wind Gust: 12.0mph - -
Wind- - SW
Pressure: 30.01 in 29.94 in -
Precipitation: 0.00 in    
Historical Graphs
 
 
Tabular Data for August 2, 2017
Time Temperature Dew Point Pressure Wind Wind Speed Wind Gust Humidity Rainfall Rate (Hourly) solar
00:00 66.9 °F 64.2 °F 29.99 in Calm     91% 0.00 in 0 W/m2
00:06 66.7 °F 64.0 °F 29.99 in Calm     91% 0.00 in 0 W/m2
00:12 66.7 °F 64.0 °F 29.99 in Calm     91% 0.00 in 0 W/m2
00:18 66.6 °F 63.9 °F 29.99 in Calm     91% 0.00 in 0 W/m2
00:24 66.5 °F 63.8 °F 29.99 in Calm     91% 0.00 in 0 W/m2
00:30 66.5 °F 63.8 °F 29.99 in Calm     91% 0.00 in 0 W/m2
00:36 66.5 °F 64.1 °F 29.99 in Calm     92% 0.00 in 0 W/m2
00:42 66.4 °F 64.0 °F 29.99 in Calm     92% 0.00 in 0 W/m2
00:48 66.3 °F 63.9 °F 29.99 in Calm     92% 0.00 in 0 W/m2
00:54 66.2 °F 63.8 °F 29.99 in Calm     92% 0.00 in 0 W/m2
01:00 66.2 °F 63.8 °F 29.99 in Calm     92% 0.00 in 0 W/m2
01:06 66.1 °F 63.7 °F 29.99 in Calm     92% 0.00 in 0 W/m2
01:12 66.0 °F 63.6 °F 29.99 in Calm     92% 0.00 in 0 W/m2
01:18 65.6 °F 63.2 °F 29.99 in Calm     92% 0.00 in 0 W/m2
01:24 65.7 °F 63.3 °F 29.99 in Calm     92% 0.00 in 0 W/m2
01:32 65.8 °F 63.4 °F 29.99 in Calm     92% 0.00 in 0 W/m2
01:40 65.7 °F 63.3 °F 29.99 in Calm     92% 0.00 in 0 W/m2
01:46 65.6 °F 63.5 °F 29.99 in Calm     93% 0.00 in 0 W/m2
01:52 65.8 °F 63.7 °F 29.99 in Calm     93% 0.00 in 0 W/m2
01:58 65.8 °F 63.7 °F 29.99 in Calm     93% 0.00 in 0 W/m2
02:04 65.8 °F 63.7 °F 29.98 in Calm     93% 0.00 in 0 W/m2
02:10 65.6 °F 63.5 °F 29.98 in Calm     93% 0.00 in 0 W/m2
02:18 65.5 °F 63.4 °F 29.98 in Calm     93% 0.00 in 0 W/m2
02:24 65.4 °F 63.3 °F 29.98 in Calm     93% 0.00 in 0 W/m2
02:30 65.3 °F 63.2 °F 29.98 in Calm     93% 0.00 in 0 W/m2
02:36 65.3 °F 63.2 °F 29.98 in Calm     93% 0.00 in 0 W/m2
02:42 65.2 °F 63.1 °F 29.98 in Calm     93% 0.00 in 0 W/m2
02:48 64.9 °F 62.8 °F 29.98 in Calm     93% 0.00 in 0 W/m2
02:54 64.8 °F 62.7 °F 29.97 in Calm     93% 0.00 in 0 W/m2
03:00 64.7 °F 62.6 °F 29.97 in Calm     93% 0.00 in 0 W/m2
03:06 64.7 °F 62.6 °F 29.97 in Calm     93% 0.00 in 0 W/m2
03:12 64.8 °F 62.7 °F 29.97 in Calm     93% 0.00 in 0 W/m2
03:18 64.7 °F 62.6 °F 29.97 in Calm     93% 0.00 in 0 W/m2
03:24 64.6 °F 62.5 °F 29.97 in Calm     93% 0.00 in 0 W/m2
03:30 64.5 °F 62.4 °F 29.97 in Calm     93% 0.00 in 0 W/m2
03:36 64.4 °F 62.3 °F 29.97 in Calm     93% 0.00 in 0 W/m2
03:42 64.3 °F 62.2 °F 29.97 in Calm     93% 0.00 in 0 W/m2
03:48 64.3 °F 62.2 °F 29.97 in Calm     93% 0.00 in 0 W/m2
03:54 64.2 °F 62.1 °F 29.97 in Calm     93% 0.00 in 0 W/m2
04:02 64.2 °F 62.4 °F 29.97 in Calm     94% 0.00 in 0 W/m2
04:08 64.1 °F 62.0 °F 29.97 in Calm     93% 0.00 in 0 W/m2
04:14 64.1 °F 62.0 °F 29.97 in Calm     93% 0.00 in 0 W/m2
04:20 64.2 °F 62.4 °F 29.97 in Calm     94% 0.00 in 0 W/m2
04:26 64.3 °F 62.5 °F 29.97 in Calm     94% 0.00 in 0 W/m2
04:32 64.2 °F 62.4 °F 29.97 in Calm     94% 0.00 in 0 W/m2
04:38 64.2 °F 62.4 °F 29.97 in Calm     94% 0.00 in 0 W/m2
04:44 64.1 °F 62.3 °F 29.97 in Calm     94% 0.00 in 0 W/m2
04:50 64.1 °F 62.3 °F 29.97 in Calm     94% 0.00 in 0 W/m2
04:56 64.1 °F 62.3 °F 29.98 in Calm     94% 0.00 in 0 W/m2
05:02 63.8 °F 62.0 °F 29.98 in Calm     94% 0.00 in 0 W/m2
05:08 63.6 °F 61.8 °F 29.98 in Calm     94% 0.00 in 0 W/m2
05:14 63.5 °F 61.7 °F 29.98 in Calm     94% 0.00 in 0 W/m2
05:20 63.5 °F 61.7 °F 29.98 in Calm     94% 0.00 in 0 W/m2
05:26 63.6 °F 61.8 °F 29.99 in Calm     94% 0.00 in 0 W/m2
05:32 63.5 °F 61.7 °F 29.99 in Calm     94% 0.00 in 0 W/m2
05:38 63.5 °F 61.7 °F 29.99 in Calm     94% 0.00 in 0 W/m2
05:44 63.4 °F 61.6 °F 29.99 in Calm     94% 0.00 in 0 W/m2
05:50 63.3 °F 61.5 °F 29.99 in Calm     94% 0.00 in 0 W/m2
05:56 63.2 °F 61.4 °F 29.99 in Calm     94% 0.00 in 5 W/m2
06:02 63.2 °F 61.4 °F 29.99 in Calm     94% 0.00 in 9 W/m2
06:08 63.1 °F 61.3 °F 30.00 in Calm     94% 0.00 in 12 W/m2
06:14 63.2 °F 61.4 °F 30.00 in Calm     94% 0.00 in 16 W/m2
06:20 63.5 °F 61.7 °F 30.00 in Calm     94% 0.00 in 21 W/m2
06:26 63.5 °F 61.7 °F 30.00 in Calm     94% 0.00 in 28 W/m2
06:32 63.5 °F 61.7 °F 30.00 in Calm     94% 0.00 in 35 W/m2
06:38 63.5 °F 61.7 °F 30.00 in Calm     94% 0.00 in 44 W/m2
06:44 63.6 °F 61.8 °F 30.00 in Calm     94% 0.00 in 67 W/m2
06:50 63.9 °F 62.1 °F 30.00 in Calm     94% 0.00 in 79 W/m2
06:56 64.1 °F 62.3 °F 30.00 in Calm     94% 0.00 in 74 W/m2
07:02 64.3 °F 62.5 °F 30.00 in Calm     94% 0.00 in 69 W/m2
07:08 64.4 °F 62.6 °F 30.00 in Calm     94% 0.00 in 77 W/m2
07:14 64.6 °F 62.8 °F 30.00 in Calm     94% 0.00 in 102 W/m2
07:20 65.1 °F 63.3 °F 30.00 in Calm     94% 0.00 in 98 W/m2
07:26 65.6 °F 63.8 °F 30.00 in Calm     94% 0.00 in 142 W/m2
07:32 66.3 °F 64.5 °F 30.00 in Calm     94% 0.00 in 178 W/m2
07:38 66.9 °F 65.1 °F 30.00 in Calm     94% 0.00 in 195 W/m2
07:44 67.4 °F 65.6 °F 30.00 in Calm     94% 0.00 in 105 W/m2
07:50 67.7 °F 65.9 °F 30.00 in Calm     94% 0.00 in 139 W/m2
07:56 67.8 °F 66.0 °F 30.00 in Calm   1.0 mph 94% 0.00 in 218 W/m2
08:02 68.4 °F 66.3 °F 30.00 in Calm     93% 0.00 in 206 W/m2
08:08 69.0 °F 66.6 °F 30.01 in Calm     92% 0.00 in 160 W/m2
08:14 69.5 °F 66.4 °F 30.01 in Calm   1.0 mph 90% 0.00 in 220 W/m2
08:20 70.3 °F 66.6 °F 30.01 in Calm     88% 0.00 in 169 W/m2
08:26 70.6 °F 65.9 °F 30.01 in Calm   1.0 mph 85% 0.00 in 167 W/m2
08:32 70.8 °F 66.1 °F 30.01 in Calm     85% 0.00 in 213 W/m2
08:38 71.1 °F 66.4 °F 30.01 in Calm     85% 0.00 in 206 W/m2
08:44 71.4 °F 66.3 °F 30.01 in Calm     84% 0.00 in 179 W/m2
08:50 71.6 °F 66.2 °F 30.01 in Calm   1.0 mph 83% 0.00 in 292 W/m2
08:56 71.9 °F 66.5 °F 30.01 in Calm   1.0 mph 83% 0.00 in 281 W/m2
09:02 72.3 °F 66.5 °F 30.01 in Calm     82% 0.00 in 374 W/m2
09:08 73.0 °F 66.8 °F 30.01 in Calm   1.0 mph 81% 0.00 in 527 W/m2
09:14 73.9 °F 67.3 °F 30.01 in Calm     80% 0.00 in 563 W/m2
09:20 74.7 °F 67.0 °F 30.01 in Calm     77% 0.00 in 338 W/m2
09:26 74.5 °F 66.1 °F 30.01 in Calm   1.0 mph 75% 0.00 in 461 W/m2
09:32 74.8 °F 66.7 °F 30.01 in Calm   2.0 mph 76% 0.00 in 475 W/m2
09:38 74.8 °F 66.7 °F 30.01 in NE 1.0 mph 3.0 mph 76% 0.00 in 584 W/m2
09:44 75.3 °F 67.6 °F 30.01 in SE 1.0 mph 3.0 mph 77% 0.00 in 471 W/m2
09:50 75.2 °F 66.3 °F 30.01 in SE 1.0 mph 1.0 mph 74% 0.00 in 454 W/m2
09:56 75.5 °F 66.6 °F 30.01 in SW 1.0 mph 5.0 mph 74% 0.00 in 343 W/m2
10:02 75.6 °F 66.7 °F 30.01 in SW 1.0 mph 2.0 mph 74% 0.00 in 499 W/m2
10:08 76.0 °F 67.1 °F 30.01 in SW 1.0 mph 2.0 mph 74% 0.00 in 547 W/m2
10:14 76.1 °F 66.4 °F 30.01 in WSW 1.0 mph 4.0 mph 72% 0.00 in 427 W/m2
10:20 76.4 °F 67.1 °F 30.01 in WSW 1.0 mph 1.0 mph 73% 0.00 in 457 W/m2
10:26 76.9 °F 67.2 °F 30.01 in Calm   1.0 mph 72% 0.00 in 592 W/m2
10:32 77.8 °F 68.0 °F 30.01 in Calm     72% 0.00 in 432 W/m2
10:38 78.1 °F 65.8 °F 30.01 in Calm     66% 0.00 in 457 W/m2
10:44 77.8 °F 66.4 °F 30.01 in Calm   1.0 mph 68% 0.00 in 408 W/m2
10:50 78.2 °F 65.9 °F 30.01 in Calm     66% 0.00 in 473 W/m2
10:56 78.4 °F 66.5 °F 30.01 in Calm   3.0 mph 67% 0.00 in 585 W/m2
11:02 78.6 °F 65.8 °F 30.01 in WSW 1.0 mph 4.0 mph 65% 0.00 in 700 W/m2
11:08 78.9 °F 67.4 °F 30.01 in WNW 1.0 mph 4.0 mph 68% 0.00 in 824 W/m2
11:14 79.7 °F 65.1 °F 30.01 in SW 1.0 mph 2.0 mph 61% 0.00 in 515 W/m2
11:20 79.4 °F 66.2 °F 30.01 in SW 1.0 mph 4.0 mph 64% 0.00 in 554 W/m2
11:26 79.8 °F 63.2 °F 30.01 in West 1.0 mph 4.0 mph 57% 0.00 in 615 W/m2
11:28 80.2 °F 63.6 °F 30.01 in West 1.0 mph 4.0 mph 57% 0.00 in 680 W/m2
11:34 80.2 °F 64.1 °F 30.01 in Calm   1.0 mph 58% 0.00 in 497 W/m2
11:40 79.8 °F 62.7 °F 30.01 in SW 1.0 mph 3.0 mph 56% 0.00 in 619 W/m2
11:46 79.9 °F 61.2 °F 30.01 in WSW 1.0 mph 3.0 mph 53% 0.00 in 497 W/m2
11:48 79.6 °F 63.5 °F 30.01 in WSW 1.0 mph 3.0 mph 58% 0.00 in 490 W/m2
11:54 80.0 °F 61.3 °F 30.00 in WSW 1.0 mph 3.0 mph 53% 0.00 in 619 W/m2
12:00 80.1 °F 59.2 °F 30.00 in WSW 1.0 mph 1.0 mph 49% 0.00 in 559 W/m2
12:06 80.1 °F 60.9 °F 30.00 in Calm   1.0 mph 52% 0.00 in 431 W/m2
12:12 80.8 °F 63.1 °F 30.00 in Calm     55% 0.00 in 875 W/m2
12:18 81.3 °F 60.3 °F 30.00 in Calm   1.0 mph 49% 0.00 in 821 W/m2
12:24 81.4 °F 64.2 °F 29.99 in NW 1.0 mph 3.0 mph 56% 0.00 in 571 W/m2
12:30 80.8 °F 59.3 °F 29.99 in West 1.0 mph 1.0 mph 48% 0.00 in 466 W/m2
12:36 81.0 °F 61.2 °F 29.99 in South 1.0 mph 2.0 mph 51% 0.00 in 698 W/m2
12:42 80.9 °F 59.9 °F 29.99 in South 1.0 mph 3.0 mph 49% 0.00 in 773 W/m2
12:48 81.0 °F 61.7 °F 29.99 in WSW 2.0 mph 3.0 mph 52% 0.00 in 404 W/m2
12:54 80.8 °F 61.0 °F 29.99 in West 1.0 mph 2.0 mph 51% 0.00 in 461 W/m2
13:00 80.8 °F 61.5 °F 29.99 in West 1.0 mph 1.0 mph 52% 0.00 in 582 W/m2
13:06 81.2 °F 64.0 °F 29.98 in Calm   1.0 mph 56% 0.00 in 638 W/m2
13:12 81.7 °F 61.8 °F 29.98 in Calm   1.0 mph 51% 0.00 in 816 W/m2
13:18 81.3 °F 62.5 °F 29.98 in Calm   1.0 mph 53% 0.00 in 689 W/m2
13:24 81.6 °F 61.7 °F 29.98 in Calm     51% 0.00 in 795 W/m2
13:30 81.5 °F 62.2 °F 29.98 in WNW 1.0 mph 1.0 mph 52% 0.00 in 759 W/m2
13:36 81.2 °F 59.6 °F 29.97 in WSW 1.0 mph 1.0 mph 48% 0.00 in 668 W/m2
13:48 81.8 °F 65.1 °F 29.97 in Calm   1.0 mph 57% 0.00 in 786 W/m2
13:56 82.2 °F 62.3 °F 29.97 in Calm     51% 0.00 in 619 W/m2
14:03 82.0 °F 65.3 °F 29.97 in WSW 1.0 mph 6.0 mph 57% 0.00 in 721 W/m2
14:08 82.3 °F 62.4 °F 29.97 in SW 2.0 mph 6.0 mph 51% 0.00 in 733 W/m2
14:14 82.7 °F 61.6 °F 29.96 in SW 1.0 mph 2.0 mph 49% 0.00 in 911 W/m2
14:20 83.1 °F 65.8 °F 29.96 in WSW 1.0 mph 1.0 mph 56% 0.00 in 889 W/m2
14:26 83.5 °F 61.7 °F 29.95 in NNW 1.0 mph 3.0 mph 48% 0.00 in 884 W/m2
14:32 83.4 °F 62.2 °F 29.95 in NNW 1.0 mph 1.0 mph 49% 0.00 in 895 W/m2
14:38 83.8 °F 63.2 °F 29.95 in SSW 1.0 mph 2.0 mph 50% 0.00 in 882 W/m2
14:44 83.9 °F 65.5 °F 29.95 in NNW 1.0 mph 1.0 mph 54% 0.00 in 851 W/m2
14:50 84.0 °F 65.0 °F 29.95 in NNW 1.0 mph 1.0 mph 53% 0.00 in 854 W/m2
14:56 83.6 °F 66.2 °F 29.95 in Calm   1.0 mph 56% 0.00 in 842 W/m2
15:02 83.9 °F 64.9 °F 29.95 in WSW 1.0 mph 4.0 mph 53% 0.00 in 626 W/m2
15:08 83.7 °F 65.8 °F 29.95 in North 2.0 mph 5.0 mph 55% 0.00 in 761 W/m2
15:14 83.9 °F 67.5 °F 29.95 in North 1.0 mph 2.0 mph 58% 0.00 in 809 W/m2
15:20 84.1 °F 64.0 °F 29.95 in WNW 1.0 mph 1.0 mph 51% 0.00 in 810 W/m2
15:26 83.5 °F 67.2 °F 29.95 in North 1.0 mph 3.0 mph 58% 0.00 in 777 W/m2
15:32 84.4 °F 64.3 °F 29.95 in WNW 1.0 mph 2.0 mph 51% 0.00 in 763 W/m2
15:38 84.8 °F 64.1 °F 29.95 in NNW 1.0 mph 2.0 mph 50% 0.00 in 756 W/m2
15:44 84.5 °F 63.2 °F 29.95 in SW 2.0 mph 3.0 mph 49% 0.00 in 733 W/m2
15:50 85.3 °F 65.7 °F 29.94 in NW 2.0 mph 2.0 mph 52% 0.00 in 703 W/m2
15:56 85.1 °F 66.0 °F 29.95 in SW 1.0 mph 3.0 mph 53% 0.00 in 717 W/m2
16:03 84.9 °F 63.0 °F 29.94 in NW 1.0 mph 2.0 mph 48% 0.00 in 707 W/m2
16:08 84.5 °F 61.4 °F 29.95 in West 1.0 mph 3.0 mph 46% 0.00 in 684 W/m2
16:14 84.2 °F 61.2 °F 29.94 in South 1.0 mph 1.0 mph 46% 0.00 in 666 W/m2
16:20 84.8 °F 62.3 °F 29.94 in WSW 1.0 mph 1.0 mph 47% 0.00 in 656 W/m2
16:26 84.6 °F 62.1 °F 29.94 in South 1.0 mph 1.0 mph 47% 0.00 in 633 W/m2
16:32 84.9 °F 61.2 °F 29.94 in SW 1.0 mph 2.0 mph 45% 0.00 in 613 W/m2
16:38 84.6 °F 65.0 °F 29.94 in Calm   2.0 mph 52% 0.00 in 603 W/m2
16:44 84.5 °F 63.2 °F 29.94 in Calm     49% 0.00 in 584 W/m2
16:52 84.3 °F 61.9 °F 29.94 in SW 1.0 mph 2.0 mph 47% 0.00 in 97 W/m2
16:58 84.3 °F 63.1 °F 29.94 in SW 1.0 mph 4.0 mph 49% 0.00 in 554 W/m2
17:04 84.6 °F 63.9 °F 29.94 in SW 1.0 mph 1.0 mph 50% 0.00 in 118 W/m2
17:10 84.7 °F 62.2 °F 29.94 in SW 1.0 mph 2.0 mph 47% 0.00 in 100 W/m2
17:16 84.2 °F 61.2 °F 29.94 in SW 1.0 mph 2.0 mph 46% 0.00 in 67 W/m2
17:22 83.8 °F 64.3 °F 29.94 in West 1.0 mph 1.0 mph 52% 0.00 in 81 W/m2
17:28 83.4 °F 62.8 °F 29.94 in North 1.0 mph 3.0 mph 50% 0.00 in 77 W/m2
17:34 83.2 °F 63.7 °F 29.94 in North 2.0 mph 3.0 mph 52% 0.00 in 76 W/m2
17:40 83.0 °F 66.2 °F 29.94 in North 1.0 mph 1.0 mph 57% 0.00 in 81 W/m2
17:46 82.7 °F 64.9 °F 29.94 in Calm   1.0 mph 55% 0.00 in 93 W/m2
17:52 82.5 °F 63.6 °F 29.95 in Calm     53% 0.00 in 72 W/m2
17:58 82.6 °F 63.2 °F 29.95 in Calm     52% 0.00 in 79 W/m2
18:04 82.9 °F 61.8 °F 29.95 in WSW 1.0 mph 3.0 mph 49% 0.00 in 67 W/m2
18:10 83.0 °F 63.6 °F 29.95 in SW 2.0 mph 2.0 mph 52% 0.00 in 63 W/m2
18:16 83.0 °F 63.0 °F 29.95 in SW 1.0 mph 2.0 mph 51% 0.00 in 62 W/m2
18:22 82.9 °F 60.6 °F 29.94 in Calm   2.0 mph 47% 0.00 in 51 W/m2
18:28 82.8 °F 62.3 °F 29.94 in Calm   2.0 mph 50% 0.00 in 56 W/m2
18:34 82.5 °F 62.0 °F 29.94 in Calm     50% 0.00 in 53 W/m2
18:40 82.4 °F 64.1 °F 29.94 in Calm     54% 0.00 in 47 W/m2
18:46 82.2 °F 64.4 °F 29.94 in Calm     55% 0.00 in 46 W/m2
18:52 81.9 °F 63.1 °F 29.94 in Calm     53% 0.00 in 44 W/m2
18:58 81.8 °F 64.6 °F 29.94 in Calm     56% 0.00 in 42 W/m2
19:04 81.6 °F 62.8 °F 29.94 in Calm     53% 0.00 in 40 W/m2
19:10 81.4 °F 66.2 °F 29.94 in Calm     60% 0.00 in 39 W/m2
19:16 81.1 °F 65.4 °F 29.95 in Calm     59% 0.00 in 39 W/m2
19:22 80.6 °F 66.8 °F 29.95 in Calm     63% 0.00 in 37 W/m2
19:28 80.1 °F 67.3 °F 29.95 in Calm     65% 0.00 in 33 W/m2
19:34 79.6 °F 66.8 °F 29.95 in Calm     65% 0.00 in 30 W/m2
19:40 79.1 °F 66.8 °F 29.95 in Calm     66% 0.00 in 28 W/m2
19:46 78.0 °F 66.6 °F 29.95 in Calm   1.0 mph 68% 0.00 in 25 W/m2
19:52 77.2 °F 68.7 °F 29.95 in Calm     75% 0.00 in 23 W/m2
19:58 76.2 °F 67.3 °F 29.95 in Calm     74% 0.00 in 18 W/m2
20:04 75.7 °F 66.4 °F 29.95 in Calm     73% 0.00 in 14 W/m2
20:10 75.5 °F 65.4 °F 29.95 in SE 1.0 mph 3.0 mph 71% 0.00 in 5 W/m2
20:16 75.7 °F 65.6 °F 29.95 in SE 1.0 mph 3.0 mph 71% 0.00 in 0 W/m2
20:22 76.4 °F 65.1 °F 29.95 in SE 1.0 mph 3.0 mph 68% 0.00 in 0 W/m2
20:28 76.4 °F 65.1 °F 29.95 in SE 1.0 mph 3.0 mph 68% 0.00 in 0 W/m2
20:34 76.1 °F 64.8 °F 29.95 in Calm   1.0 mph 68% 0.00 in 0 W/m2
20:40 75.5 °F 65.4 °F 29.95 in Calm     71% 0.00 in 0 W/m2
20:46 74.8 °F 65.2 °F 29.96 in Calm     72% 0.00 in 0 W/m2
20:52 74.1 °F 64.9 °F 29.96 in Calm     73% 0.00 in 0 W/m2
20:58 74.1 °F 64.5 °F 29.96 in SE 1.0 mph 1.0 mph 72% 0.00 in 0 W/m2
21:04 74.5 °F 64.5 °F 29.96 in SSE 1.0 mph 3.0 mph 71% 0.00 in 0 W/m2
21:10 74.5 °F 64.5 °F 29.97 in SSE 1.0 mph 1.0 mph 71% 0.00 in 0 W/m2
21:16 74.3 °F 64.3 °F 29.97 in Calm   1.0 mph 71% 0.00 in 0 W/m2
21:22 74.3 °F 64.3 °F 29.97 in Calm   2.0 mph 71% 0.00 in 0 W/m2
21:28 74.9 °F 62.8 °F 29.97 in South 2.0 mph 4.0 mph 66% 0.00 in 0 W/m2
21:34 75.1 °F 63.0 °F 29.97 in South 3.0 mph 3.0 mph 66% 0.00 in 0 W/m2
21:40 74.9 °F 62.3 °F 29.97 in SSE 2.0 mph 5.0 mph 65% 0.00 in 0 W/m2
21:46 75.1 °F 62.1 °F 29.98 in South 3.0 mph 5.0 mph 64% 0.00 in 0 W/m2
21:52 75.0 °F 61.5 °F 29.98 in SSW 3.0 mph 4.0 mph 63% 0.00 in 0 W/m2
21:58 74.8 °F 61.8 °F 29.98 in SW 3.0 mph 4.0 mph 64% 0.00 in 0 W/m2
22:04 74.5 °F 61.5 °F 29.98 in SSW 3.0 mph 4.0 mph 64% 0.00 in 0 W/m2
22:10 74.3 °F 61.8 °F 29.99 in South 3.0 mph 3.0 mph 65% 0.00 in 0 W/m2
22:16 74.2 °F 61.2 °F 29.99 in SSW 3.0 mph 4.0 mph 64% 0.00 in 0 W/m2
22:22 74.1 °F 61.1 °F 29.99 in South 3.0 mph 4.0 mph 64% 0.00 in 0 W/m2
22:28 73.8 °F 61.3 °F 30.00 in SSW 2.0 mph 4.0 mph 65% 0.00 in 0 W/m2
22:34 73.5 °F 61.4 °F 30.00 in SSW 1.0 mph 3.0 mph 66% 0.00 in 0 W/m2
22:40 73.3 °F 61.3 °F 30.00 in SSW 2.0 mph 3.0 mph 66% 0.00 in 0 W/m2
22:46 73.3 °F 61.3 °F 30.00 in South 2.0 mph 4.0 mph 66% 0.00 in 0 W/m2
22:52 73.3 °F 61.7 °F 30.00 in SW 1.0 mph 2.0 mph 67% 0.00 in 0 W/m2
22:58 73.3 °F 61.7 °F 30.00 in SW 1.0 mph 2.0 mph 67% 0.00 in 0 W/m2
23:04 73.5 °F 61.9 °F 30.00 in WSW 3.0 mph 12.0 mph 67% 0.00 in 0 W/m2
23:18 73.5 °F 62.3 °F 29.99 in South 5.0 mph 10.0 mph 68% 0.00 in 0 W/m2
23:24 73.3 °F 62.5 °F 29.99 in SW 5.0 mph 6.0 mph 69% 0.00 in 0 W/m2
23:28 73.1 °F 62.3 °F 29.99 in South 5.0 mph 10.0 mph 69% 0.00 in 0 W/m2
23:34 73.0 °F 62.2 °F 29.99 in WSW 4.0 mph 5.0 mph 69% 0.00 in 0 W/m2
23:40 72.8 °F 62.4 °F 29.99 in SW 3.0 mph 3.0 mph 70% 0.00 in 0 W/m2
23:42 72.7 °F 62.8 °F 29.99 in SW 3.0 mph 6.0 mph 71% 0.00 in 0 W/m2
23:48 72.5 °F 62.6 °F 29.99 in SW 3.0 mph 6.0 mph 71% 0.00 in 0 W/m2
23:54 72.4 °F 62.9 °F 29.99 in SW 2.0 mph 2.0 mph 72% 0.00 in 0 W/m2
Country Meadow, Clay, NY, USA
Compliments of Weather Underground - 2 mb